Time;durP1;ratioP1;P1;durP2;ratioP2;P2;SDS_P1;SDS_P2;PMS_P1;PMS_P2;Temp;Humidity;BMP_temperature;BMP_pressure;BME280_temperature;BME280_humidity;BME280_pressure;Samples;Min_cycle;Max_cycle;Signal;HPM_P1;HPM_P2
2022/09/01 00:01:36;;;;;;;1.90;1.80;;;;;;;;;;5055711;28;20202;-72
2022/09/01 00:04:03;;;;;;;2.20;2.10;;;;;;;;;;5069015;28;20332;-72
2022/09/01 00:06:29;;;;;;;2.03;1.93;;;;;;;;;;5062271;28;20202;-72
2022/09/01 00:08:56;;;;;;;2.30;2.20;;;;;;;;;;5065947;28;20205;-73
2022/09/01 00:11:22;;;;;;;2.13;2.03;;;;;;;;;;5059236;28;20983;-72
2022/09/01 00:13:49;;;;;;;2.27;2.17;;;;;;;;;;5058756;28;20238;-72
2022/09/01 00:16:16;;;;;;;2.20;2.10;;;;;;;;;;5057905;28;20191;-72
2022/09/01 00:18:45;;;;;;;2.17;2.07;;;;;;;;;;5071091;27;20202;-72
2022/09/01 00:21:11;;;;;;;2.17;2.07;;;;;;;;;;5075012;28;20230;-72
2022/09/01 00:23:37;;;;;;;2.17;2.07;;;;;;;;;;5073165;28;20227;-71
2022/09/01 00:26:03;;;;;;;1.10;1.10;;;;;;;;;;5071119;28;20214;-73
2022/09/01 00:28:29;;;;;;;1.10;1.10;;;;;;;;;;5057057;27;20214;-72
2022/09/01 00:30:55;;;;;;;1.13;1.13;;;;;;;;;;5038818;28;20206;-72
2022/09/01 00:33:20;;;;;;;1.00;1.00;;;;;;;;;;5071620;28;20254;-72
2022/09/01 00:35:47;;;;;;;1.10;1.10;;;;;;;;;;5071306;27;20727;-72
2022/09/01 00:38:13;;;;;;;1.07;1.07;;;;;;;;;;5056782;28;20654;-72
2022/09/01 00:40:38;;;;;;;1.00;1.00;;;;;;;;;;5070009;28;20254;-73
2022/09/01 00:43:12;;;;;;;1.00;1.00;;;;;;;;;;5073645;28;20198;-72
2022/09/01 00:45:38;;;;;;;1.10;1.10;;;;;;;;;;5056048;28;20228;-72
2022/09/01 00:48:05;;;;;;;2.33;2.23;;;;;;;;;;5068735;28;20218;-72
2022/09/01 00:50:31;;;;;;;2.00;1.90;;;;;;;;;;5058866;28;20249;-72
2022/09/01 00:52:57;;;;;;;1.80;1.70;;;;;;;;;;5065885;28;20939;-72
2022/09/01 00:55:25;;;;;;;2.13;2.03;;;;;;;;;;5053377;28;20202;-72
2022/09/01 00:57:51;;;;;;;2.30;2.20;;;;;;;;;;5050798;28;20543;-72
2022/09/01 01:00:19;;;;;;;2.37;2.27;;;;;;;;;;5064100;28;20226;-72
2022/09/01 01:02:44;;;;;;;2.50;2.40;;;;;;;;;;5055656;28;20183;-70
2022/09/01 01:23:35;;;;;;;2.20;2.10;;;;;;;;;;4992509;28;20239;-78
2022/09/01 01:26:01;;;;;;;2.30;2.20;;;;;;;;;;5013629;28;20213;-78
2022/09/01 01:28:30;;;;;;;2.00;1.90;;;;;;;;;;4995780;28;20225;-76
2022/09/01 01:30:58;;;;;;;2.20;2.10;;;;;;;;;;5008397;28;20216;-75
2022/09/01 01:33:25;;;;;;;2.07;1.97;;;;;;;;;;5019347;28;20311;-79
2022/09/01 01:35:51;;;;;;;2.10;2.00;;;;;;;;;;5001759;28;20220;-77
2022/09/01 01:38:21;;;;;;;1.90;1.80;;;;;;;;;;5011058;28;20229;-75
2022/09/01 01:40:47;;;;;;;2.00;1.90;;;;;;;;;;4995838;28;20286;-74
2022/09/01 01:43:21;;;;;;;2.17;2.07;;;;;;;;;;4985472;28;20223;-78
2022/09/01 01:45:50;;;;;;;2.10;2.00;;;;;;;;;;5015330;28;20225;-77
2022/09/01 01:48:23;;;;;;;2.03;1.93;;;;;;;;;;4992607;28;20285;-77
2022/09/01 01:50:49;;;;;;;1.90;1.80;;;;;;;;;;4995551;28;20223;-77
2022/09/01 01:53:17;;;;;;;2.00;1.90;;;;;;;;;;4993648;28;20225;-77
2022/09/01 01:55:43;;;;;;;2.10;2.00;;;;;;;;;;5016154;28;20216;-78
2022/09/01 01:58:13;;;;;;;3.20;3.10;;;;;;;;;;4993527;28;20217;-78
2022/09/01 02:00:43;;;;;;;1.50;1.50;;;;;;;;;;5008449;28;20319;-77
2022/09/01 02:03:11;;;;;;;1.67;1.67;;;;;;;;;;5005649;28;20217;-76
2022/09/01 02:05:37;;;;;;;1.57;1.57;;;;;;;;;;5012375;28;20352;-76
2022/09/01 02:08:05;;;;;;;1.50;1.50;;;;;;;;;;5031582;28;20443;-77
2022/09/01 02:10:32;;;;;;;1.67;1.60;;;;;;;;;;4993144;28;20227;-78
2022/09/01 02:13:03;;;;;;;1.80;1.70;;;;;;;;;;5018056;28;20216;-76
2022/09/01 02:15:31;;;;;;;1.40;1.40;;;;;;;;;;5002857;28;20245;-77
2022/09/01 02:17:59;;;;;;;1.83;1.73;;;;;;;;;;5013089;28;20216;-78
2022/09/01 02:20:27;;;;;;;1.40;1.40;;;;;;;;;;4994454;28;22229;-76
2022/09/01 02:22:54;;;;;;;1.63;1.63;;;;;;;;;;4990830;28;20609;-77
2022/09/01 02:25:21;;;;;;;1.60;1.60;;;;;;;;;;4978465;28;20223;-77
2022/09/01 02:27:49;;;;;;;1.60;1.60;;;;;;;;;;4995719;28;20711;-78
2022/09/01 02:30:15;;;;;;;1.40;1.40;;;;;;;;;;4987501;28;20304;-78
2022/09/01 02:32:41;;;;;;;1.87;1.77;;;;;;;;;;5004666;28;20221;-76
2022/09/01 02:35:08;;;;;;;1.40;1.40;;;;;;;;;;4998312;28;20698;-77
2022/09/01 02:37:35;;;;;;;1.50;1.50;;;;;;;;;;4993286;28;20684;-75
2022/09/01 02:40:01;;;;;;;0.70;0.70;;;;;;;;;;4989098;28;20223;-76
2022/09/01 02:42:28;;;;;;;0.70;0.70;;;;;;;;;;4982774;28;20267;-77
2022/09/01 02:44:54;;;;;;;0.80;0.80;;;;;;;;;;5002906;28;20224;-77
2022/09/01 02:47:22;;;;;;;0.80;0.80;;;;;;;;;;5004543;28;20251;-77
2022/09/01 02:49:49;;;;;;;0.80;0.80;;;;;;;;;;5001745;28;20244;-76
2022/09/01 02:52:16;;;;;;;0.80;0.80;;;;;;;;;;4979954;28;20244;-78
2022/09/01 02:54:44;;;;;;;0.80;0.80;;;;;;;;;;4982100;28;20226;-76
2022/09/01 02:57:10;;;;;;;0.77;0.77;;;;;;;;;;4998790;28;20219;-76
2022/09/01 02:59:36;;;;;;;0.70;0.70;;;;;;;;;;5018416;28;20224;-73
2022/09/01 03:02:02;;;;;;;0.70;0.70;;;;;;;;;;5014038;28;20244;-76
2022/09/01 03:04:34;;;;;;;0.70;0.70;;;;;;;;;;4990851;28;20299;-73
2022/09/01 03:07:00;;;;;;;0.73;0.73;;;;;;;;;;5007874;28;20701;-73
2022/09/01 03:09:26;;;;;;;0.80;0.80;;;;;;;;;;4980665;28;20222;-77
2022/09/01 03:11:53;;;;;;;0.70;0.70;;;;;;;;;;5012058;28;20220;-76
2022/09/01 03:14:19;;;;;;;0.90;0.90;;;;;;;;;;5008300;28;22242;-77
2022/09/01 03:16:45;;;;;;;0.70;0.70;;;;;;;;;;4988098;28;20252;-77
2022/09/01 03:19:11;;;;;;;1.10;1.10;;;;;;;;;;4988728;28;20779;-77
2022/09/01 03:21:39;;;;;;;1.17;1.17;;;;;;;;;;4994979;28;20327;-76
2022/09/01 03:24:05;;;;;;;1.00;1.00;;;;;;;;;;5003039;28;20215;-76
2022/09/01 03:26:31;;;;;;;1.20;1.20;;;;;;;;;;4978589;28;20216;-78
2022/09/01 03:28:58;;;;;;;1.00;1.00;;;;;;;;;;5004321;28;20227;-78
2022/09/01 03:31:26;;;;;;;0.93;0.93;;;;;;;;;;4987813;28;20235;-75
2022/09/01 03:33:53;;;;;;;1.10;1.10;;;;;;;;;;4995254;28;20303;-76
2022/09/01 03:36:19;;;;;;;1.00;1.00;;;;;;;;;;4990543;28;20224;-77
2022/09/01 03:38:47;;;;;;;1.30;1.30;;;;;;;;;;4978407;28;20242;-77
2022/09/01 03:41:13;;;;;;;1.10;1.10;;;;;;;;;;4989026;28;20781;-78
2022/09/01 03:43:39;;;;;;;1.00;1.00;;;;;;;;;;4998107;28;20253;-76
2022/09/01 03:46:08;;;;;;;1.20;1.20;;;;;;;;;;4984923;28;21130;-76
2022/09/01 03:48:34;;;;;;;0.70;0.70;;;;;;;;;;4989751;28;22534;-74
2022/09/01 03:51:01;;;;;;;1.20;1.20;;;;;;;;;;4990254;28;21375;-76
2022/09/01 03:53:28;;;;;;;1.40;1.40;;;;;;;;;;4999171;28;20512;-77
2022/09/01 03:55:56;;;;;;;1.40;1.40;;;;;;;;;;4987821;28;20223;-78
2022/09/01 03:58:22;;;;;;;1.40;1.40;;;;;;;;;;4988059;28;21573;-77
2022/09/01 04:00:49;;;;;;;0.60;0.60;;;;;;;;;;4991475;28;20224;-77
2022/09/01 04:03:21;;;;;;;0.60;0.60;;;;;;;;;;4997299;28;20258;-77
2022/09/01 04:05:48;;;;;;;0.80;0.80;;;;;;;;;;4985525;28;20228;-76
2022/09/01 04:08:14;;;;;;;0.70;0.70;;;;;;;;;;4984968;28;20240;-77
2022/09/01 04:10:50;;;;;;;0.60;0.60;;;;;;;;;;4998741;28;20311;-76
2022/09/01 04:13:17;;;;;;;0.80;0.80;;;;;;;;;;4990087;28;20227;-76
2022/09/01 04:15:43;;;;;;;0.70;0.70;;;;;;;;;;4992275;28;20227;-76
2022/09/01 04:18:09;;;;;;;0.70;0.70;;;;;;;;;;5003779;28;20256;-75
2022/09/01 04:20:47;;;;;;;0.60;0.60;;;;;;;;;;4986006;28;20236;-75
2022/09/01 04:23:22;;;;;;;0.80;0.80;;;;;;;;;;4996136;28;20335;-78
2022/09/01 04:25:49;;;;;;;0.73;0.73;;;;;;;;;;4992553;28;20273;-78
2022/09/01 04:28:21;;;;;;;0.80;0.80;;;;;;;;;;4999646;28;20305;-78
2022/09/01 04:30:48;;;;;;;1.53;1.53;;;;;;;;;;5004352;28;20231;-77
2022/09/01 04:33:16;;;;;;;1.97;1.87;;;;;;;;;;5004029;28;20325;-79
2022/09/01 04:35:42;;;;;;;2.20;2.10;;;;;;;;;;5024805;28;20225;-77
2022/09/01 04:38:08;;;;;;;2.40;2.30;;;;;;;;;;5018879;28;20225;-77
2022/09/01 04:40:40;;;;;;;2.30;2.20;;;;;;;;;;5006927;28;20224;-80
2022/09/01 04:43:07;;;;;;;2.37;2.27;;;;;;;;;;4980257;28;20233;-79
2022/09/01 04:45:36;;;;;;;2.53;2.43;;;;;;;;;;4979510;28;20221;-79
2022/09/01 04:48:05;;;;;;;2.40;2.30;;;;;;;;;;5000079;28;20232;-79
2022/09/01 04:50:33;;;;;;;2.23;2.13;;;;;;;;;;4975489;28;20526;-77
2022/09/01 04:53:00;;;;;;;2.30;2.20;;;;;;;;;;5005560;28;20242;-77
2022/09/01 04:55:28;;;;;;;2.50;2.40;;;;;;;;;;5002687;28;20735;-80
2022/09/01 04:57:55;;;;;;;1.90;1.80;;;;;;;;;;5002615;28;20217;-78
2022/09/01 05:00:21;;;;;;;1.10;1.10;;;;;;;;;;4992666;28;20233;-79
2022/09/01 05:02:52;;;;;;;1.10;1.10;;;;;;;;;;4982444;28;20231;-77
2022/09/01 05:05:18;;;;;;;1.00;1.00;;;;;;;;;;5000135;28;21405;-78
2022/09/01 05:07:45;;;;;;;1.13;1.13;;;;;;;;;;4981813;28;20247;-78
2022/09/01 05:10:11;;;;;;;1.10;1.10;;;;;;;;;;4985988;28;20709;-78
2022/09/01 05:12:37;;;;;;;0.97;0.97;;;;;;;;;;4975643;28;20220;-80
2022/09/01 05:15:05;;;;;;;1.00;1.00;;;;;;;;;;4979705;28;20243;-78
2022/09/01 05:17:31;;;;;;;1.03;1.03;;;;;;;;;;5007379;28;20552;-75
2022/09/01 05:19:57;;;;;;;1.90;1.80;;;;;;;;;;4981882;28;20241;-78
2022/09/01 05:22:24;;;;;;;2.37;2.27;;;;;;;;;;4999026;28;20710;-77
2022/09/01 05:24:50;;;;;;;2.00;1.90;;;;;;;;;;4995616;28;20238;-78
2022/09/01 05:27:17;;;;;;;1.93;1.83;;;;;;;;;;4994482;28;20684;-78
2022/09/01 05:29:45;;;;;;;2.27;2.17;;;;;;;;;;5000705;28;20220;-78
2022/09/01 05:32:11;;;;;;;2.33;2.23;;;;;;;;;;5020720;28;20225;-78
2022/09/01 05:34:38;;;;;;;2.13;2.03;;;;;;;;;;5022180;28;20582;-77
2022/09/01 05:37:05;;;;;;;1.97;1.87;;;;;;;;;;4998626;28;20215;-78
2022/09/01 05:39:31;;;;;;;1.87;1.77;;;;;;;;;;5010207;28;20221;-77
2022/09/01 05:41:58;;;;;;;1.87;1.77;;;;;;;;;;5014668;28;20232;-77
2022/09/01 05:44:24;;;;;;;1.90;1.80;;;;;;;;;;5025349;28;20231;-77
2022/09/01 05:46:50;;;;;;;1.83;1.73;;;;;;;;;;4993478;28;20224;-78
2022/09/01 05:49:17;;;;;;;1.50;1.50;;;;;;;;;;4990740;28;20217;-78
2022/09/01 05:51:43;;;;;;;1.83;1.73;;;;;;;;;;4997390;28;26031;-78
2022/09/01 05:54:10;;;;;;;1.90;1.80;;;;;;;;;;5003907;28;20802;-78
2022/09/01 05:56:39;;;;;;;1.97;1.87;;;;;;;;;;5013585;28;20223;-77
2022/09/01 05:59:05;;;;;;;1.53;1.53;;;;;;;;;;4996141;28;20225;-78
2022/09/01 06:01:32;;;;;;;1.90;1.80;;;;;;;;;;5013577;28;20580;-78
2022/09/01 06:03:58;;;;;;;1.80;1.70;;;;;;;;;;5003662;28;20596;-70
2022/09/01 06:06:25;;;;;;;1.50;1.50;;;;;;;;;;5006238;28;20221;-73
2022/09/01 06:08:52;;;;;;;1.70;1.60;;;;;;;;;;4992298;28;20224;-73
2022/09/01 06:11:20;;;;;;;1.50;1.50;;;;;;;;;;4993729;28;20229;-72
2022/09/01 06:13:46;;;;;;;1.60;1.60;;;;;;;;;;5017767;28;20224;-72
2022/09/01 06:16:18;;;;;;;1.73;1.70;;;;;;;;;;4993975;28;20257;-72
2022/09/01 06:18:44;;;;;;;1.60;1.60;;;;;;;;;;4995574;28;20245;-71
2022/09/01 06:21:13;;;;;;;1.33;1.33;;;;;;;;;;5004804;28;20664;-72
2022/09/01 06:23:42;;;;;;;1.30;1.30;;;;;;;;;;5000035;28;20265;-72
2022/09/01 06:26:18;;;;;;;1.37;1.37;;;;;;;;;;5010084;28;20945;-72
2022/09/01 06:28:44;;;;;;;1.40;1.40;;;;;;;;;;4991747;28;20281;-72
2022/09/01 06:31:11;;;;;;;1.83;1.73;;;;;;;;;;5006775;28;20224;-73
2022/09/01 06:33:37;;;;;;;1.60;1.60;;;;;;;;;;5020193;28;20220;-73
2022/09/01 06:36:04;;;;;;;1.50;1.50;;;;;;;;;;5011809;28;20804;-72
2022/09/01 06:38:30;;;;;;;1.87;1.77;;;;;;;;;;5020500;28;20260;-71
2022/09/01 06:41:03;;;;;;;1.40;1.40;;;;;;;;;;5015722;28;20374;-74
2022/09/01 06:43:29;;;;;;;1.60;1.60;;;;;;;;;;5003097;28;20221;-72
2022/09/01 06:45:55;;;;;;;1.70;1.70;;;;;;;;;;5013050;28;20272;-73
2022/09/01 06:48:22;;;;;;;2.00;1.90;;;;;;;;;;5020396;28;20295;-73
2022/09/01 06:50:48;;;;;;;1.83;1.73;;;;;;;;;;5009204;28;20231;-72
2022/09/01 06:53:17;;;;;;;1.67;1.63;;;;;;;;;;5006755;28;20221;-72
2022/09/01 06:55:45;;;;;;;2.20;2.10;;;;;;;;;;5004358;28;20329;-73
2022/09/01 06:58:12;;;;;;;1.70;1.70;;;;;;;;;;5022048;28;20220;-71
2022/09/01 07:00:41;;;;;;;1.90;1.80;;;;;;;;;;5019048;28;20637;-75
2022/09/01 07:03:08;;;;;;;1.60;1.60;;;;;;;;;;5006297;28;20220;-71
2022/09/01 07:05:36;;;;;;;1.80;1.70;;;;;;;;;;5009735;28;20286;-71
2022/09/01 07:08:06;;;;;;;2.00;1.90;;;;;;;;;;5011441;28;20223;-72
2022/09/01 07:10:32;;;;;;;1.77;1.70;;;;;;;;;;5000424;28;20276;-71
2022/09/01 07:12:58;;;;;;;1.90;1.80;;;;;;;;;;5007056;28;20228;-74
2022/09/01 07:15:26;;;;;;;1.97;1.87;;;;;;;;;;5002250;28;20224;-74
2022/09/01 07:17:57;;;;;;;2.00;1.90;;;;;;;;;;5011968;28;20240;-72
2022/09/01 07:20:24;;;;;;;1.40;1.40;;;;;;;;;;5003324;28;20239;-72
2022/09/01 07:22:50;;;;;;;1.20;1.20;;;;;;;;;;5008494;28;20227;-73
2022/09/01 07:25:17;;;;;;;1.40;1.40;;;;;;;;;;5011861;28;20228;-74
2022/09/01 07:27:47;;;;;;;1.43;1.43;;;;;;;;;;5000047;28;20224;-74
2022/09/01 07:30:13;;;;;;;1.23;1.23;;;;;;;;;;5012766;28;20255;-72
2022/09/01 07:32:42;;;;;;;1.30;1.30;;;;;;;;;;4990029;28;20328;-74
2022/09/01 07:35:08;;;;;;;1.53;1.53;;;;;;;;;;4995620;28;20310;-72
2022/09/01 07:37:36;;;;;;;1.20;1.20;;;;;;;;;;5022222;28;20715;-74
2022/09/01 07:40:05;;;;;;;1.20;1.20;;;;;;;;;;5001347;28;20228;-72
2022/09/01 07:42:31;;;;;;;1.77;1.67;;;;;;;;;;5020719;28;20216;-72
2022/09/01 07:44:57;;;;;;;1.80;1.70;;;;;;;;;;5010787;28;20216;-72
2022/09/01 07:47:23;;;;;;;2.00;1.90;;;;;;;;;;5014164;28;20220;-72
2022/09/01 07:49:49;;;;;;;2.33;2.23;;;;;;;;;;5011323;28;20232;-71
2022/09/01 07:52:16;;;;;;;2.23;2.13;;;;;;;;;;5004770;28;20227;-74
2022/09/01 07:54:42;;;;;;;1.90;1.80;;;;;;;;;;5015452;28;21366;-72
2022/09/01 07:57:08;;;;;;;2.00;1.90;;;;;;;;;;5001937;28;20223;-72
2022/09/01 07:59:34;;;;;;;2.30;2.20;;;;;;;;;;5016050;28;20228;-73
2022/09/01 08:02:04;;;;;;;2.00;1.90;;;;;;;;;;5010604;28;20293;-73
2022/09/01 08:04:32;;;;;;;1.80;1.70;;;;;;;;;;4996388;28;20315;-73
2022/09/01 08:06:59;;;;;;;2.17;2.07;;;;;;;;;;4997977;28;20218;-73
2022/09/01 08:09:26;;;;;;;1.40;1.40;;;;;;;;;;5009046;28;20228;-71
2022/09/01 08:11:52;;;;;;;1.50;1.50;;;;;;;;;;5007552;28;20255;-72
2022/09/01 08:14:18;;;;;;;1.40;1.40;;;;;;;;;;5028309;28;20299;-71
2022/09/01 08:16:44;;;;;;;1.70;1.70;;;;;;;;;;5018783;28;20235;-72
2022/09/01 08:19:10;;;;;;;1.80;1.70;;;;;;;;;;5019753;28;20240;-71
2022/09/01 08:21:36;;;;;;;1.63;1.63;;;;;;;;;;5029038;28;20255;-75
2022/09/01 08:24:02;;;;;;;1.50;1.50;;;;;;;;;;5021249;28;20228;-73
2022/09/01 08:26:28;;;;;;;1.83;1.73;;;;;;;;;;5027174;28;20560;-72
2022/09/01 08:28:54;;;;;;;2.00;1.90;;;;;;;;;;4990638;28;20232;-72
2022/09/01 08:31:20;;;;;;;2.00;1.90;;;;;;;;;;5004006;28;20225;-71
2022/09/01 08:33:47;;;;;;;2.27;2.17;;;;;;;;;;4996862;28;20286;-71
2022/09/01 08:36:13;;;;;;;1.90;1.80;;;;;;;;;;5025390;28;20224;-72
2022/09/01 08:38:39;;;;;;;2.40;2.30;;;;;;;;;;5011141;28;20260;-70
2022/09/01 08:41:05;;;;;;;2.20;2.10;;;;;;;;;;5025184;28;20585;-70
2022/09/01 08:43:31;;;;;;;2.30;2.20;;;;;;;;;;5003273;28;20225;-70
2022/09/01 08:45:58;;;;;;;2.20;2.10;;;;;;;;;;5024349;28;20228;-70
2022/09/01 08:48:25;;;;;;;2.10;2.00;;;;;;;;;;5005264;28;20225;-73
2022/09/01 08:50:54;;;;;;;2.10;2.00;;;;;;;;;;5011218;28;20228;-75
2022/09/01 08:53:36;;;;;;;2.13;2.03;;;;;;;;;;4987700;28;20228;-74
2022/09/01 08:56:02;;;;;;;2.10;2.00;;;;;;;;;;5011684;28;20259;-72
2022/09/01 08:58:30;;;;;;;2.33;2.22;;;;;;;;;;5002946;28;20228;-72
2022/09/01 09:00:57;;;;;;;2.20;2.10;;;;;;;;;;5007561;28;20315;-73
2022/09/01 09:03:26;;;;;;;1.60;1.60;;;;;;;;;;5010923;28;20308;-71
2022/09/01 09:05:52;;;;;;;1.83;1.73;;;;;;;;;;5001888;28;20677;-73
2022/09/01 09:08:33;;;;;;;2.35;2.25;;;;;;;;;;5024525;28;20216;-73
2022/09/01 09:11:07;;;;;;;2.33;2.22;;;;;;;;;;5005956;28;20601;-72
2022/09/01 09:13:42;;;;;;;2.30;2.20;;;;;;;;;;5001880;28;20656;-70
2022/09/01 09:16:17;;;;;;;2.00;1.90;;;;;;;;;;5019853;28;20236;-72
2022/09/01 09:18:47;;;;;;;2.20;2.10;;;;;;;;;;5027407;28;20238;-71
2022/09/01 09:21:24;;;;;;;2.00;1.90;;;;;;;;;;5018074;28;20236;-73
2022/09/01 09:23:58;;;;;;;2.10;2.00;;;;;;;;;;4991638;28;20228;-72
2022/09/01 09:26:24;;;;;;;2.20;2.10;;;;;;;;;;5008191;28;20230;-72
2022/09/01 09:28:50;;;;;;;2.38;2.28;;;;;;;;;;4983827;28;20711;-73
2022/09/01 09:31:41;;;;;;;2.20;2.10;;;;;;;;;;5006224;28;20304;-73
2022/09/01 09:34:15;;;;;;;2.00;1.90;;;;;;;;;;5019706;28;20215;-73
2022/09/01 09:36:44;;;;;;;2.00;1.90;;;;;;;;;;5011480;28;20271;-72
2022/09/01 09:39:11;;;;;;;2.17;2.08;;;;;;;;;;5011114;28;20212;-73
2022/09/01 09:41:37;;;;;;;2.10;2.00;;;;;;;;;;5001636;28;20235;-70
2022/09/01 09:44:16;;;;;;;2.20;2.10;;;;;;;;;;4993953;28;20694;-72
2022/09/01 09:46:42;;;;;;;2.10;2.00;;;;;;;;;;5017673;28;20638;-71
2022/09/01 09:49:19;;;;;;;2.80;2.70;;;;;;;;;;4996717;28;20227;-71
2022/09/01 09:51:50;;;;;;;2.28;2.17;;;;;;;;;;5001789;28;20690;-73
2022/09/01 09:54:15;;;;;;;2.47;2.38;;;;;;;;;;4993290;28;20953;-71
2022/09/01 09:56:45;;;;;;;2.40;2.30;;;;;;;;;;4991853;28;20217;-74
2022/09/01 09:59:26;;;;;;;2.33;2.22;;;;;;;;;;5004654;28;20229;-72
2022/09/01 10:01:54;;;;;;;2.33;2.22;;;;;;;;;;5010250;28;20231;-73
2022/09/01 10:04:34;;;;;;;2.30;2.20;;;;;;;;;;4995686;28;20252;-73
2022/09/01 10:06:59;;;;;;;2.30;2.20;;;;;;;;;;4997509;28;20223;-74
2022/09/01 10:09:25;;;;;;;2.38;2.28;;;;;;;;;;5011444;28;20212;-73
2022/09/01 10:11:52;;;;;;;2.47;2.38;;;;;;;;;;4999002;28;20221;-72
2022/09/01 10:14:19;;;;;;;2.30;2.20;;;;;;;;;;5012249;28;20216;-73
2022/09/01 10:16:46;;;;;;;2.65;2.55;;;;;;;;;;5002806;28;20235;-72
2022/09/01 10:19:13;;;;;;;2.40;2.30;;;;;;;;;;5001035;28;20601;-72
2022/09/01 10:21:43;;;;;;;2.22;2.13;;;;;;;;;;5018671;28;20601;-73
2022/09/01 10:24:09;;;;;;;2.30;2.20;;;;;;;;;;5014294;28;20819;-71
2022/09/01 10:26:36;;;;;;;2.30;2.20;;;;;;;;;;5018335;28;20235;-73
2022/09/01 10:29:07;;;;;;;2.40;2.30;;;;;;;;;;5003658;28;20219;-72
2022/09/01 10:31:33;;;;;;;2.53;2.42;;;;;;;;;;4988237;28;20221;-71
2022/09/01 10:33:59;;;;;;;2.50;2.40;;;;;;;;;;5020622;28;20221;-71
2022/09/01 10:36:25;;;;;;;2.20;2.10;;;;;;;;;;4998499;28;21321;-71
2022/09/01 10:38:51;;;;;;;2.10;2.00;;;;;;;;;;4998931;28;20228;-72
2022/09/01 10:41:36;;;;;;;2.00;1.90;;;;;;;;;;5025896;28;20316;-72
2022/09/01 10:44:11;;;;;;;2.10;2.00;;;;;;;;;;5012619;28;20229;-74
2022/09/01 10:46:37;;;;;;;2.10;2.00;;;;;;;;;;4999450;28;20229;-72
2022/09/01 10:49:03;;;;;;;2.10;2.00;;;;;;;;;;5023362;28;20218;-73
2022/09/01 10:51:29;;;;;;;1.90;1.80;;;;;;;;;;4998186;28;20610;-72
2022/09/01 10:53:56;;;;;;;2.10;2.00;;;;;;;;;;5016535;28;20696;-73
2022/09/01 10:56:22;;;;;;;2.00;1.90;;;;;;;;;;5002336;28;20227;-72
2022/09/01 10:59:04;;;;;;;2.00;1.90;;;;;;;;;;5016434;28;20229;-72
2022/09/01 11:01:39;;;;;;;2.00;1.90;;;;;;;;;;4995626;28;21477;-72
2022/09/01 11:04:05;;;;;;;2.10;2.00;;;;;;;;;;5003348;28;20220;-73
2022/09/01 11:06:33;;;;;;;2.10;2.00;;;;;;;;;;4998083;28;20256;-74
2022/09/01 11:09:05;;;;;;;2.20;2.10;;;;;;;;;;4996962;28;20295;-71
2022/09/01 11:11:35;;;;;;;2.03;1.92;;;;;;;;;;4999004;28;20246;-73
2022/09/01 11:14:04;;;;;;;2.00;1.90;;;;;;;;;;4983330;28;21922;-74
2022/09/01 11:16:41;;;;;;;2.20;2.10;;;;;;;;;;4989694;28;20220;-74
2022/09/01 11:19:20;;;;;;;2.05;1.95;;;;;;;;;;5001679;28;20600;-73
2022/09/01 11:21:46;;;;;;;1.90;1.80;;;;;;;;;;5004342;28;20229;-75
2022/09/01 11:24:31;;;;;;;2.22;2.13;;;;;;;;;;4993726;28;20224;-74
2022/09/01 11:26:57;;;;;;;2.05;1.95;;;;;;;;;;5013691;28;20281;-73
2022/09/01 11:29:41;;;;;;;2.00;1.90;;;;;;;;;;5014091;28;20217;-72
2022/09/01 11:32:07;;;;;;;2.08;1.98;;;;;;;;;;4998214;28;20225;-74
2022/09/01 11:34:33;;;;;;;2.10;2.00;;;;;;;;;;4999516;28;20232;-74
2022/09/01 11:37:00;;;;;;;2.00;1.90;;;;;;;;;;5001864;28;21194;-73
2022/09/01 11:39:44;;;;;;;2.13;2.03;;;;;;;;;;5015523;28;21035;-73
2022/09/01 11:42:13;;;;;;;2.10;2.00;;;;;;;;;;5013354;28;20707;-72
2022/09/01 11:44:52;;;;;;;1.98;1.88;;;;;;;;;;4991223;28;20245;-74
2022/09/01 11:47:26;;;;;;;2.10;2.00;;;;;;;;;;4993141;28;20306;-74
2022/09/01 11:49:55;;;;;;;2.10;2.00;;;;;;;;;;5004851;28;20307;-73
2022/09/01 11:52:22;;;;;;;1.90;1.80;;;;;;;;;;4980852;28;20286;-72
2022/09/01 11:54:48;;;;;;;2.00;1.90;;;;;;;;;;4995768;28;20211;-73
2022/09/01 11:57:22;;;;;;;1.90;1.80;;;;;;;;;;4999822;28;20221;-75
2022/09/01 11:59:48;;;;;;;1.90;1.80;;;;;;;;;;4983029;28;20279;-74
2022/09/01 12:02:18;;;;;;;2.00;1.90;;;;;;;;;;4986679;28;20226;-73
2022/09/01 12:04:45;;;;;;;2.05;1.95;;;;;;;;;;5006993;28;20229;-73
2022/09/01 12:07:12;;;;;;;2.08;1.98;;;;;;;;;;5005327;28;20252;-75
2022/09/01 12:09:43;;;;;;;2.10;2.00;;;;;;;;;;4981356;28;20221;-73
2022/09/01 12:12:26;;;;;;;2.10;2.00;;;;;;;;;;5020866;28;20220;-73
2022/09/01 12:14:56;;;;;;;2.00;1.90;;;;;;;;;;5010391;28;20934;-73
2022/09/01 12:17:22;;;;;;;2.05;1.95;;;;;;;;;;5017939;28;20212;-73
2022/09/01 12:19:48;;;;;;;2.10;2.00;;;;;;;;;;4995921;28;20245;-75
2022/09/01 12:22:15;;;;;;;2.20;2.10;;;;;;;;;;5001870;28;20229;-72
2022/09/01 12:24:43;;;;;;;2.00;1.90;;;;;;;;;;5000294;28;20222;-72
2022/09/01 12:27:09;;;;;;;1.90;1.80;;;;;;;;;;5012403;28;20651;-74
2022/09/01 12:29:36;;;;;;;2.08;1.98;;;;;;;;;;5009898;28;20352;-72
2022/09/01 12:32:02;;;;;;;2.10;2.00;;;;;;;;;;5025734;28;20221;-73
2022/09/01 12:34:36;;;;;;;2.10;2.00;;;;;;;;;;5011786;28;20597;-75
2022/09/01 12:37:06;;;;;;;2.05;1.95;;;;;;;;;;5001710;28;20217;-74
2022/09/01 12:39:39;;;;;;;2.10;2.00;;;;;;;;;;5006480;28;20224;-74
2022/09/01 12:42:20;;;;;;;2.00;1.90;;;;;;;;;;5014025;28;20227;-74
2022/09/01 12:44:49;;;;;;;2.10;2.00;;;;;;;;;;5008588;28;20228;-76
2022/09/01 12:47:36;;;;;;;1.92;1.83;;;;;;;;;;4983083;28;20271;-74
2022/09/01 12:50:02;;;;;;;2.20;2.10;;;;;;;;;;5011102;28;20224;-73
2022/09/01 12:52:28;;;;;;;1.70;1.70;;;;;;;;;;4999891;28;20236;-74
2022/09/01 12:55:07;;;;;;;1.90;1.80;;;;;;;;;;4982880;28;20222;-74
2022/09/01 12:57:44;;;;;;;2.10;2.00;;;;;;;;;;4998044;28;21668;-75
2022/09/01 13:00:10;;;;;;;2.00;1.90;;;;;;;;;;4988741;28;20303;-76
2022/09/01 13:02:36;;;;;;;1.73;1.70;;;;;;;;;;4983595;28;20303;-74
2022/09/01 13:05:40;;;;;;;1.95;1.85;;;;;;;;;;4988912;28;20224;-75
2022/09/01 13:08:07;;;;;;;2.05;1.95;;;;;;;;;;4967949;28;20238;-77
2022/09/01 13:10:40;;;;;;;1.50;1.50;;;;;;;;;;4983396;28;20240;-74
2022/09/01 13:13:06;;;;;;;1.80;1.70;;;;;;;;;;4965163;28;20223;-74
2022/09/01 13:15:33;;;;;;;1.60;1.60;;;;;;;;;;5017629;28;20672;-75
2022/09/01 13:17:59;;;;;;;1.98;1.88;;;;;;;;;;4978324;28;20222;-75
2022/09/01 13:20:25;;;;;;;1.30;1.30;;;;;;;;;;4978759;28;20238;-75
2022/09/01 13:22:52;;;;;;;1.40;1.40;;;;;;;;;;4972078;28;20271;-76
2022/09/01 13:25:19;;;;;;;1.30;1.30;;;;;;;;;;4977631;28;20245;-76
2022/09/01 13:27:46;;;;;;;1.15;1.15;;;;;;;;;;4989107;28;21476;-75
2022/09/01 13:30:14;;;;;;;1.50;1.50;;;;;;;;;;4996785;28;20250;-74
2022/09/01 13:32:41;;;;;;;1.88;1.77;;;;;;;;;;5009177;28;20213;-75
2022/09/01 13:35:07;;;;;;;1.10;1.10;;;;;;;;;;4987798;28;20690;-76
2022/09/01 13:37:33;;;;;;;1.20;1.20;;;;;;;;;;4976358;28;20655;-74
2022/09/01 13:39:59;;;;;;;1.20;1.20;;;;;;;;;;4995758;28;20309;-76
2022/09/01 13:42:25;;;;;;;0.90;0.90;;;;;;;;;;4983635;28;20219;-74
2022/09/01 13:44:51;;;;;;;0.60;0.60;;;;;;;;;;5006864;28;20233;-73
2022/09/01 13:47:17;;;;;;;0.70;0.70;;;;;;;;;;5000834;28;21166;-74
2022/09/01 13:49:43;;;;;;;0.60;0.60;;;;;;;;;;4998170;28;20227;-74
2022/09/01 13:52:09;;;;;;;0.60;0.60;;;;;;;;;;4998323;28;20221;-74
2022/09/01 13:54:35;;;;;;;0.60;0.60;;;;;;;;;;4979912;28;20232;-76
2022/09/01 13:57:01;;;;;;;0.70;0.70;;;;;;;;;;4973930;28;20260;-77
2022/09/01 13:59:28;;;;;;;0.60;0.60;;;;;;;;;;4999593;28;20233;-74
2022/09/01 14:01:54;;;;;;;0.60;0.60;;;;;;;;;;4986025;28;20632;-75
2022/09/01 14:04:21;;;;;;;0.77;0.77;;;;;;;;;;4973591;28;20218;-74
2022/09/01 14:06:47;;;;;;;0.60;0.60;;;;;;;;;;4999307;28;20249;-76
2022/09/01 14:09:13;;;;;;;0.60;0.60;;;;;;;;;;4990680;28;20304;-74
2022/09/01 14:11:39;;;;;;;0.60;0.60;;;;;;;;;;4986885;28;20284;-75
2022/09/01 14:14:05;;;;;;;0.70;0.70;;;;;;;;;;4991421;28;20212;-75
2022/09/01 14:16:32;;;;;;;0.60;0.60;;;;;;;;;;5004624;28;20253;-75
2022/09/01 14:18:58;;;;;;;1.30;1.30;;;;;;;;;;5006135;28;20231;-74
2022/09/01 14:21:24;;;;;;;1.40;1.40;;;;;;;;;;4996485;28;20217;-74
2022/09/01 14:23:50;;;;;;;1.20;1.20;;;;;;;;;;5000628;28;20623;-75
2022/09/01 14:26:16;;;;;;;1.35;1.35;;;;;;;;;;4981707;28;20229;-73
2022/09/01 14:28:44;;;;;;;1.30;1.30;;;;;;;;;;5009394;28;20273;-72
2022/09/01 14:31:14;;;;;;;1.17;1.17;;;;;;;;;;4976240;28;20257;-75
2022/09/01 14:33:40;;;;;;;1.30;1.30;;;;;;;;;;4992858;28;20220;-75
2022/09/01 14:36:06;;;;;;;1.30;1.30;;;;;;;;;;4984750;28;20746;-75
2022/09/01 14:38:32;;;;;;;0.70;0.70;;;;;;;;;;4987354;28;20214;-73
2022/09/01 14:40:58;;;;;;;0.70;0.70;;;;;;;;;;5010913;28;20270;-75
2022/09/01 14:43:26;;;;;;;0.65;0.65;;;;;;;;;;5014121;28;20267;-74
2022/09/01 14:46:01;;;;;;;0.68;0.68;;;;;;;;;;4995256;28;20222;-74
2022/09/01 14:48:27;;;;;;;0.60;0.60;;;;;;;;;;5004706;28;20227;-74
2022/09/01 14:50:53;;;;;;;0.60;0.60;;;;;;;;;;4993656;28;20275;-74
2022/09/01 14:53:19;;;;;;;0.60;0.60;;;;;;;;;;5002603;28;20232;-74
2022/09/01 14:55:45;;;;;;;0.60;0.60;;;;;;;;;;5017337;28;20225;-74
2022/09/01 14:58:12;;;;;;;0.60;0.60;;;;;;;;;;4991589;28;20206;-74
2022/09/01 15:00:40;;;;;;;0.60;0.60;;;;;;;;;;4989734;28;20226;-76
2022/09/01 15:03:06;;;;;;;0.60;0.60;;;;;;;;;;4974965;28;20371;-74
2022/09/01 15:05:32;;;;;;;0.70;0.70;;;;;;;;;;5000312;28;21011;-75
2022/09/01 15:07:58;;;;;;;0.60;0.60;;;;;;;;;;4992189;28;20582;-77